sensor_id;sensor_type;location;lat;lon;timestamp;pressure;altitude;pressure_sealevel;temperature;humidity
45872;BME280;32333;55.844;-3.210;2023-03-12T00:01:49;97971.63;;;-0.12;100.00
45872;BME280;32333;55.844;-3.210;2023-03-12T00:04:17;97971.93;;;0.53;100.00
45872;BME280;32333;55.844;-3.210;2023-03-12T00:06:45;97961.87;;;-0.22;100.00
45872;BME280;32333;55.844;-3.210;2023-03-12T00:09:13;97957.18;;;1.24;100.00
45872;BME280;32333;55.844;-3.210;2023-03-12T00:11:42;97953.65;;;-0.29;100.00
45872;BME280;32333;55.844;-3.210;2023-03-12T00:14:36;97941.81;;;0.90;100.00
45872;BME280;32333;55.844;-3.210;2023-03-12T00:17:04;97949.10;;;0.46;100.00
45872;BME280;32333;55.844;-3.210;2023-03-12T00:19:31;97936.03;;;0.93;100.00
45872;BME280;32333;55.844;-3.210;2023-03-12T00:21:59;97931.67;;;1.99;100.00
45872;BME280;32333;55.844;-3.210;2023-03-12T00:24:26;97927.94;;;0.60;100.00
45872;BME280;32333;55.844;-3.210;2023-03-12T00:26:54;97924.32;;;0.69;100.00
45872;BME280;32333;55.844;-3.210;2023-03-12T00:29:21;97918.78;;;0.89;100.00
45872;BME280;32333;55.844;-3.210;2023-03-12T00:31:48;97913.21;;;0.73;100.00
45872;BME280;32333;55.844;-3.210;2023-03-12T00:34:18;97897.96;;;1.30;100.00
45872;BME280;32333;55.844;-3.210;2023-03-12T00:36:45;97908.60;;;0.45;100.00
45872;BME280;32333;55.844;-3.210;2023-03-12T00:39:13;97906.74;;;0.83;100.00
45872;BME280;32333;55.844;-3.210;2023-03-12T00:41:42;97899.34;;;0.52;100.00
45872;BME280;32333;55.844;-3.210;2023-03-12T00:44:36;97887.68;;;0.68;100.00
45872;BME280;32333;55.844;-3.210;2023-03-12T00:47:04;97885.12;;;0.17;100.00
45872;BME280;32333;55.844;-3.210;2023-03-12T00:49:31;97877.73;;;0.64;100.00
45872;BME280;32333;55.844;-3.210;2023-03-12T00:52:00;97875.80;;;0.20;100.00
45872;BME280;32333;55.844;-3.210;2023-03-12T00:54:28;97863.33;;;0.78;100.00
45872;BME280;32333;55.844;-3.210;2023-03-12T00:56:55;97865.78;;;0.15;100.00
45872;BME280;32333;55.844;-3.210;2023-03-12T00:59:22;97854.13;;;0.11;100.00
45872;BME280;32333;55.844;-3.210;2023-03-12T01:01:51;97841.63;;;0.56;100.00
45872;BME280;32333;55.844;-3.210;2023-03-12T01:04:18;97840.15;;;-0.34;100.00
45872;BME280;32333;55.844;-3.210;2023-03-12T01:06:47;97836.43;;;-0.34;100.00
45872;BME280;32333;55.844;-3.210;2023-03-12T01:09:16;97837.65;;;0.12;100.00
45872;BME280;32333;55.844;-3.210;2023-03-12T01:11:45;97832.86;;;-0.15;100.00
45872;BME280;32333;55.844;-3.210;2023-03-12T01:14:36;97826.51;;;0.19;100.00
45872;BME280;32333;55.844;-3.210;2023-03-12T01:17:04;97816.67;;;-0.26;100.00
45872;BME280;32333;55.844;-3.210;2023-03-12T01:19:31;97811.09;;;-0.91;100.00
45872;BME280;32333;55.844;-3.210;2023-03-12T01:22:00;97806.34;;;-0.06;100.00
45872;BME280;32333;55.844;-3.210;2023-03-12T01:24:28;97808.51;;;-0.18;100.00
45872;BME280;32333;55.844;-3.210;2023-03-12T01:26:56;97806.52;;;-0.31;100.00
45872;BME280;32333;55.844;-3.210;2023-03-12T01:29:25;97795.96;;;-0.09;100.00
45872;BME280;32333;55.844;-3.210;2023-03-12T01:31:52;97790.05;;;-0.40;100.00
45872;BME280;32333;55.844;-3.210;2023-03-12T01:34:20;97789.76;;;-0.25;100.00
45872;BME280;32333;55.844;-3.210;2023-03-12T01:36:47;97785.70;;;-0.23;100.00
45872;BME280;32333;55.844;-3.210;2023-03-12T01:39:16;97777.43;;;0.09;100.00
45872;BME280;32333;55.844;-3.210;2023-03-12T01:41:44;97774.50;;;-0.31;100.00
45872;BME280;32333;55.844;-3.210;2023-03-12T01:44:57;97770.73;;;0.25;100.00
45872;BME280;32333;55.844;-3.210;2023-03-12T01:47:26;97768.91;;;-0.55;100.00
45872;BME280;32333;55.844;-3.210;2023-03-12T01:49:56;97759.74;;;0.12;100.00
45872;BME280;32333;55.844;-3.210;2023-03-12T01:52:27;97750.95;;;0.41;100.00
45872;BME280;32333;55.844;-3.210;2023-03-12T01:54:59;97752.19;;;0.34;100.00
45872;BME280;32333;55.844;-3.210;2023-03-12T01:57:32;97751.27;;;-0.43;100.00
45872;BME280;32333;55.844;-3.210;2023-03-12T02:00:04;97745.54;;;-0.45;100.00
45872;BME280;32333;55.844;-3.210;2023-03-12T02:02:34;97737.33;;;0.67;100.00
45872;BME280;32333;55.844;-3.210;2023-03-12T02:05:08;97732.24;;;0.36;100.00
45872;BME280;32333;55.844;-3.210;2023-03-12T02:07:37;97729.55;;;0.58;100.00
45872;BME280;32333;55.844;-3.210;2023-03-12T02:10:05;97734.09;;;-0.14;100.00
45872;BME280;32333;55.844;-3.210;2023-03-12T02:14:37;97721.96;;;0.20;100.00
45872;BME280;32333;55.844;-3.210;2023-03-12T02:17:06;97720.92;;;-0.36;100.00
45872;BME280;32333;55.844;-3.210;2023-03-12T02:19:42;97713.18;;;0.01;100.00
45872;BME280;32333;55.844;-3.210;2023-03-12T02:22:13;97714.08;;;-0.75;100.00
45872;BME280;32333;55.844;-3.210;2023-03-12T02:24:45;97709.76;;;-0.70;100.00
45872;BME280;32333;55.844;-3.210;2023-03-12T02:27:15;97706.06;;;-0.60;100.00
45872;BME280;32333;55.844;-3.210;2023-03-12T02:29:45;97695.81;;;-0.57;100.00
45872;BME280;32333;55.844;-3.210;2023-03-12T02:32:18;97696.58;;;-0.05;100.00
45872;BME280;32333;55.844;-3.210;2023-03-12T02:34:46;97697.26;;;-0.72;100.00
45872;BME280;32333;55.844;-3.210;2023-03-12T02:37:14;97681.96;;;-0.12;100.00
45872;BME280;32333;55.844;-3.210;2023-03-12T02:39:43;97674.69;;;0.19;100.00
45872;BME280;32333;55.844;-3.210;2023-03-12T02:44:36;97677.90;;;0.44;100.00
45872;BME280;32333;55.844;-3.210;2023-03-12T02:47:04;97664.11;;;0.48;100.00
45872;BME280;32333;55.844;-3.210;2023-03-12T02:49:32;97664.93;;;0.14;100.00
45872;BME280;32333;55.844;-3.210;2023-03-12T02:52:00;97658.95;;;1.51;100.00
45872;BME280;32333;55.844;-3.210;2023-03-12T02:54:28;97652.10;;;1.68;100.00
45872;BME280;32333;55.844;-3.210;2023-03-12T02:56:56;97651.22;;;1.17;100.00
45872;BME280;32333;55.844;-3.210;2023-03-12T02:59:24;97639.29;;;2.39;100.00
45872;BME280;32333;55.844;-3.210;2023-03-12T03:01:53;97635.97;;;0.79;100.00
45872;BME280;32333;55.844;-3.210;2023-03-12T03:04:22;97638.06;;;0.82;100.00
45872;BME280;32333;55.844;-3.210;2023-03-12T03:06:50;97626.54;;;1.38;100.00
45872;BME280;32333;55.844;-3.210;2023-03-12T03:09:18;97618.13;;;1.44;100.00
45872;BME280;32333;55.844;-3.210;2023-03-12T03:11:46;97621.45;;;1.55;100.00
45872;BME280;32333;55.844;-3.210;2023-03-12T03:14:35;97612.11;;;1.02;100.00
45872;BME280;32333;55.844;-3.210;2023-03-12T03:17:03;97612.35;;;1.79;100.00
45872;BME280;32333;55.844;-3.210;2023-03-12T03:19:31;97611.93;;;0.22;100.00
45872;BME280;32333;55.844;-3.210;2023-03-12T03:22:00;97612.70;;;-0.07;100.00
45872;BME280;32333;55.844;-3.210;2023-03-12T03:24:27;97613.40;;;0.16;100.00
45872;BME280;32333;55.844;-3.210;2023-03-12T03:26:55;97608.92;;;0.09;100.00
45872;BME280;32333;55.844;-3.210;2023-03-12T03:29:24;97605.73;;;0.32;100.00
45872;BME280;32333;55.844;-3.210;2023-03-12T03:31:51;97602.04;;;0.93;100.00
45872;BME280;32333;55.844;-3.210;2023-03-12T03:34:19;97597.66;;;-0.21;100.00
45872;BME280;32333;55.844;-3.210;2023-03-12T03:36:46;97601.01;;;0.67;100.00
45872;BME280;32333;55.844;-3.210;2023-03-12T03:39:15;97602.68;;;0.56;100.00
45872;BME280;32333;55.844;-3.210;2023-03-12T03:41:42;97602.31;;;0.33;100.00
45872;BME280;32333;55.844;-3.210;2023-03-12T03:44:35;97599.65;;;0.83;100.00
45872;BME280;32333;55.844;-3.210;2023-03-12T03:47:03;97603.97;;;0.42;100.00
45872;BME280;32333;55.844;-3.210;2023-03-12T03:49:31;97596.48;;;1.00;100.00
45872;BME280;32333;55.844;-3.210;2023-03-12T03:51:59;97595.35;;;0.04;100.00
45872;BME280;32333;55.844;-3.210;2023-03-12T03:54:27;97592.80;;;0.21;100.00
45872;BME280;32333;55.844;-3.210;2023-03-12T03:56:54;97594.11;;;-0.04;100.00
45872;BME280;32333;55.844;-3.210;2023-03-12T03:59:22;97592.00;;;0.12;100.00
45872;BME280;32333;55.844;-3.210;2023-03-12T04:01:50;97596.66;;;0.17;100.00
45872;BME280;32333;55.844;-3.210;2023-03-12T04:04:17;97596.20;;;0.62;100.00
45872;BME280;32333;55.844;-3.210;2023-03-12T04:06:45;97583.57;;;1.20;100.00
45872;BME280;32333;55.844;-3.210;2023-03-12T04:09:13;97585.84;;;0.19;100.00
45872;BME280;32333;55.844;-3.210;2023-03-12T04:11:41;97577.97;;;0.92;100.00
45872;BME280;32333;55.844;-3.210;2023-03-12T04:14:39;97574.90;;;0.95;100.00
45872;BME280;32333;55.844;-3.210;2023-03-12T04:17:07;97580.31;;;0.70;100.00
45872;BME280;32333;55.844;-3.210;2023-03-12T04:19:35;97577.90;;;0.36;100.00
45872;BME280;32333;55.844;-3.210;2023-03-12T04:22:03;97569.60;;;0.88;100.00
45872;BME280;32333;55.844;-3.210;2023-03-12T04:24:30;97571.73;;;0.95;100.00
45872;BME280;32333;55.844;-3.210;2023-03-12T04:26:58;97571.82;;;0.56;100.00
45872;BME280;32333;55.844;-3.210;2023-03-12T04:29:26;97572.26;;;1.05;100.00
45872;BME280;32333;55.844;-3.210;2023-03-12T04:31:53;97572.85;;;1.16;100.00
45872;BME280;32333;55.844;-3.210;2023-03-12T04:34:21;97565.48;;;1.57;100.00
45872;BME280;32333;55.844;-3.210;2023-03-12T04:36:49;97567.56;;;1.75;100.00
45872;BME280;32333;55.844;-3.210;2023-03-12T04:39:17;97557.43;;;1.55;100.00
45872;BME280;32333;55.844;-3.210;2023-03-12T04:41:45;97550.11;;;1.95;100.00
45872;BME280;32333;55.844;-3.210;2023-03-12T04:44:36;97542.34;;;1.72;100.00
45872;BME280;32333;55.844;-3.210;2023-03-12T04:47:04;97547.50;;;1.99;100.00
45872;BME280;32333;55.844;-3.210;2023-03-12T04:49:31;97543.76;;;2.02;100.00
45872;BME280;32333;55.844;-3.210;2023-03-12T04:52:00;97544.85;;;2.42;100.00
45872;BME280;32333;55.844;-3.210;2023-03-12T04:54:27;97548.07;;;2.57;100.00
45872;BME280;32333;55.844;-3.210;2023-03-12T04:56:55;97551.55;;;2.83;100.00
45872;BME280;32333;55.844;-3.210;2023-03-12T04:59:22;97561.58;;;2.83;100.00
45872;BME280;32333;55.844;-3.210;2023-03-12T05:01:50;97559.15;;;2.63;100.00
45872;BME280;32333;55.844;-3.210;2023-03-12T05:04:17;97562.82;;;2.65;100.00
45872;BME280;32333;55.844;-3.210;2023-03-12T05:06:45;97558.86;;;2.63;100.00
45872;BME280;32333;55.844;-3.210;2023-03-12T05:09:13;97564.95;;;2.86;100.00
45872;BME280;32333;55.844;-3.210;2023-03-12T05:11:40;97564.34;;;2.81;100.00
45872;BME280;32333;55.844;-3.210;2023-03-12T05:14:36;97559.17;;;2.61;100.00
45872;BME280;32333;55.844;-3.210;2023-03-12T05:17:04;97563.07;;;3.00;100.00
45872;BME280;32333;55.844;-3.210;2023-03-12T05:19:31;97567.65;;;2.90;100.00
45872;BME280;32333;55.844;-3.210;2023-03-12T05:21:59;97570.64;;;3.10;100.00
45872;BME280;32333;55.844;-3.210;2023-03-12T05:24:26;97564.08;;;2.97;100.00
45872;BME280;32333;55.844;-3.210;2023-03-12T05:26:54;97573.77;;;2.73;100.00
45872;BME280;32333;55.844;-3.210;2023-03-12T05:29:21;97573.35;;;2.57;100.00
45872;BME280;32333;55.844;-3.210;2023-03-12T05:31:50;97574.76;;;2.74;100.00
45872;BME280;32333;55.844;-3.210;2023-03-12T05:34:17;97567.46;;;3.07;100.00
45872;BME280;32333;55.844;-3.210;2023-03-12T05:36:45;97563.53;;;3.03;100.00
45872;BME280;32333;55.844;-3.210;2023-03-12T05:39:12;97562.03;;;2.75;100.00
45872;BME280;32333;55.844;-3.210;2023-03-12T05:41:40;97565.78;;;3.13;100.00
45872;BME280;32333;55.844;-3.210;2023-03-12T05:44:35;97557.27;;;3.14;100.00
45872;BME280;32333;55.844;-3.210;2023-03-12T05:47:03;97563.31;;;2.48;100.00
45872;BME280;32333;55.844;-3.210;2023-03-12T05:49:30;97562.18;;;2.42;100.00
45872;BME280;32333;55.844;-3.210;2023-03-12T05:51:58;97563.55;;;2.80;100.00
45872;BME280;32333;55.844;-3.210;2023-03-12T05:54:26;97566.63;;;2.34;100.00
45872;BME280;32333;55.844;-3.210;2023-03-12T05:56:53;97577.02;;;2.59;100.00
45872;BME280;32333;55.844;-3.210;2023-03-12T05:59:21;97566.17;;;2.88;100.00
45872;BME280;32333;55.844;-3.210;2023-03-12T06:01:49;97571.28;;;3.11;100.00
45872;BME280;32333;55.844;-3.210;2023-03-12T06:04:17;97566.13;;;3.19;100.00
45872;BME280;32333;55.844;-3.210;2023-03-12T06:06:44;97569.32;;;2.91;100.00
45872;BME280;32333;55.844;-3.210;2023-03-12T06:09:12;97572.38;;;2.92;100.00
45872;BME280;32333;55.844;-3.210;2023-03-12T06:11:39;97566.45;;;3.55;100.00
45872;BME280;32333;55.844;-3.210;2023-03-12T06:14:36;97575.33;;;3.50;100.00
45872;BME280;32333;55.844;-3.210;2023-03-12T06:17:03;97569.44;;;3.40;100.00
45872;BME280;32333;55.844;-3.210;2023-03-12T06:19:31;97580.40;;;3.47;100.00
45872;BME280;32333;55.844;-3.210;2023-03-12T06:22:00;97573.98;;;3.84;100.00
45872;BME280;32333;55.844;-3.210;2023-03-12T06:24:27;97575.09;;;3.40;100.00
45872;BME280;32333;55.844;-3.210;2023-03-12T06:26:55;97579.89;;;3.25;100.00
45872;BME280;32333;55.844;-3.210;2023-03-12T06:29:22;97568.03;;;2.87;100.00
45872;BME280;32333;55.844;-3.210;2023-03-12T06:31:50;97573.77;;;3.64;100.00
45872;BME280;32333;55.844;-3.210;2023-03-12T06:34:18;97576.11;;;3.72;100.00
45872;BME280;32333;55.844;-3.210;2023-03-12T06:36:45;97563.13;;;3.42;100.00
45872;BME280;32333;55.844;-3.210;2023-03-12T06:39:14;97554.00;;;3.15;100.00
45872;BME280;32333;55.844;-3.210;2023-03-12T06:41:41;97559.06;;;3.50;100.00
45872;BME280;32333;55.844;-3.210;2023-03-12T06:44:35;97560.74;;;3.62;100.00
45872;BME280;32333;55.844;-3.210;2023-03-12T06:47:02;97556.38;;;3.42;100.00
45872;BME280;32333;55.844;-3.210;2023-03-12T06:49:31;97559.87;;;3.77;100.00
45872;BME280;32333;55.844;-3.210;2023-03-12T06:51:58;97553.30;;;3.81;100.00
45872;BME280;32333;55.844;-3.210;2023-03-12T06:54:26;97548.37;;;4.01;100.00
45872;BME280;32333;55.844;-3.210;2023-03-12T06:56:53;97553.36;;;3.17;100.00
45872;BME280;32333;55.844;-3.210;2023-03-12T06:59:20;97561.47;;;3.44;100.00
45872;BME280;32333;55.844;-3.210;2023-03-12T07:01:49;97549.42;;;3.58;100.00
45872;BME280;32333;55.844;-3.210;2023-03-12T07:04:16;97549.84;;;3.65;100.00
45872;BME280;32333;55.844;-3.210;2023-03-12T07:06:43;97560.81;;;3.46;100.00
45872;BME280;32333;55.844;-3.210;2023-03-12T07:09:11;97565.84;;;4.27;100.00
45872;BME280;32333;55.844;-3.210;2023-03-12T07:11:38;97552.32;;;3.83;100.00
45872;BME280;32333;55.844;-3.210;2023-03-12T07:14:36;97544.01;;;3.80;100.00
45872;BME280;32333;55.844;-3.210;2023-03-12T07:17:03;97554.76;;;3.99;100.00
45872;BME280;32333;55.844;-3.210;2023-03-12T07:19:30;97547.30;;;3.85;100.00
45872;BME280;32333;55.844;-3.210;2023-03-12T07:21:57;97559.95;;;3.55;100.00
45872;BME280;32333;55.844;-3.210;2023-03-12T07:24:26;97536.83;;;4.19;100.00
45872;BME280;32333;55.844;-3.210;2023-03-12T07:26:53;97535.07;;;4.38;100.00
45872;BME280;32333;55.844;-3.210;2023-03-12T07:29:20;97543.49;;;4.28;100.00
45872;BME280;32333;55.844;-3.210;2023-03-12T07:31:48;97542.85;;;4.62;100.00
45872;BME280;32333;55.844;-3.210;2023-03-12T07:34:15;97542.49;;;4.68;100.00
45872;BME280;32333;55.844;-3.210;2023-03-12T07:36:43;97541.75;;;4.62;100.00
45872;BME280;32333;55.844;-3.210;2023-03-12T07:39:10;97541.45;;;4.27;100.00
45872;BME280;32333;55.844;-3.210;2023-03-12T07:41:38;97533.57;;;4.64;100.00
45872;BME280;32333;55.844;-3.210;2023-03-12T07:44:35;97529.96;;;4.20;100.00
45872;BME280;32333;55.844;-3.210;2023-03-12T07:47:02;97525.32;;;5.18;100.00
45872;BME280;32333;55.844;-3.210;2023-03-12T07:49:29;97534.33;;;5.36;100.00
45872;BME280;32333;55.844;-3.210;2023-03-12T07:51:57;97536.13;;;4.78;100.00
45872;BME280;32333;55.844;-3.210;2023-03-12T07:54:25;97549.28;;;4.73;100.00
45872;BME280;32333;55.844;-3.210;2023-03-12T07:56:52;97551.53;;;4.78;100.00
45872;BME280;32333;55.844;-3.210;2023-03-12T07:59:19;97542.41;;;4.67;100.00
45872;BME280;32333;55.844;-3.210;2023-03-12T08:01:47;97538.05;;;5.04;100.00
45872;BME280;32333;55.844;-3.210;2023-03-12T08:04:14;97542.77;;;5.03;100.00
45872;BME280;32333;55.844;-3.210;2023-03-12T08:06:42;97539.65;;;5.13;100.00
45872;BME280;32333;55.844;-3.210;2023-03-12T08:09:09;97542.70;;;4.87;100.00
45872;BME280;32333;55.844;-3.210;2023-03-12T08:11:36;97551.10;;;5.06;100.00
45872;BME280;32333;55.844;-3.210;2023-03-12T08:14:35;97547.49;;;4.58;100.00
45872;BME280;32333;55.844;-3.210;2023-03-12T08:17:02;97557.05;;;5.36;100.00
45872;BME280;32333;55.844;-3.210;2023-03-12T08:19:30;97527.87;;;5.07;100.00
45872;BME280;32333;55.844;-3.210;2023-03-12T08:21:57;97544.35;;;5.13;100.00
45872;BME280;32333;55.844;-3.210;2023-03-12T08:24:26;97550.11;;;5.24;100.00
45872;BME280;32333;55.844;-3.210;2023-03-12T08:26:53;97536.29;;;4.91;100.00
45872;BME280;32333;55.844;-3.210;2023-03-12T08:29:20;97539.13;;;5.21;100.00
45872;BME280;32333;55.844;-3.210;2023-03-12T08:31:48;97547.63;;;5.39;100.00
45872;BME280;32333;55.844;-3.210;2023-03-12T08:34:15;97534.75;;;5.18;100.00
45872;BME280;32333;55.844;-3.210;2023-03-12T08:36:42;97539.69;;;5.25;100.00
45872;BME280;32333;55.844;-3.210;2023-03-12T08:39:10;97548.40;;;5.97;100.00
45872;BME280;32333;55.844;-3.210;2023-03-12T08:41:38;97555.68;;;5.47;100.00
45872;BME280;32333;55.844;-3.210;2023-03-12T08:44:35;97551.06;;;5.61;100.00
45872;BME280;32333;55.844;-3.210;2023-03-12T08:47:03;97552.31;;;5.56;100.00
45872;BME280;32333;55.844;-3.210;2023-03-12T08:49:31;97544.08;;;5.83;100.00
45872;BME280;32333;55.844;-3.210;2023-03-12T08:51:59;97536.77;;;5.48;100.00
45872;BME280;32333;55.844;-3.210;2023-03-12T08:54:27;97543.24;;;5.76;100.00
45872;BME280;32333;55.844;-3.210;2023-03-12T08:56:54;97538.80;;;6.55;100.00
45872;BME280;32333;55.844;-3.210;2023-03-12T08:59:21;97531.07;;;5.67;100.00
45872;BME280;32333;55.844;-3.210;2023-03-12T09:01:49;97532.55;;;6.02;100.00
45872;BME280;32333;55.844;-3.210;2023-03-12T09:04:17;97539.29;;;6.09;100.00
45872;BME280;32333;55.844;-3.210;2023-03-12T09:06:44;97548.28;;;6.22;100.00
45872;BME280;32333;55.844;-3.210;2023-03-12T09:09:13;97535.45;;;5.69;100.00
45872;BME280;32333;55.844;-3.210;2023-03-12T09:11:41;97545.12;;;5.94;100.00
45872;BME280;32333;55.844;-3.210;2023-03-12T09:14:36;97533.23;;;6.12;100.00
45872;BME280;32333;55.844;-3.210;2023-03-12T09:17:04;97528.70;;;5.87;100.00
45872;BME280;32333;55.844;-3.210;2023-03-12T09:19:31;97515.10;;;6.01;100.00
45872;BME280;32333;55.844;-3.210;2023-03-12T09:21:59;97528.76;;;6.63;100.00
45872;BME280;32333;55.844;-3.210;2023-03-12T09:24:26;97515.68;;;6.51;100.00
45872;BME280;32333;55.844;-3.210;2023-03-12T09:26:53;97523.48;;;6.13;100.00
45872;BME280;32333;55.844;-3.210;2023-03-12T09:29:21;97514.78;;;6.76;100.00
45872;BME280;32333;55.844;-3.210;2023-03-12T09:31:49;97520.00;;;6.73;100.00
45872;BME280;32333;55.844;-3.210;2023-03-12T09:34:16;97513.72;;;7.52;100.00
45872;BME280;32333;55.844;-3.210;2023-03-12T09:36:44;97528.84;;;7.60;100.00
45872;BME280;32333;55.844;-3.210;2023-03-12T09:39:13;97509.44;;;7.56;100.00
45872;BME280;32333;55.844;-3.210;2023-03-12T09:41:43;97520.76;;;7.46;100.00
45872;BME280;32333;55.844;-3.210;2023-03-12T09:44:39;97509.30;;;7.92;100.00
45872;BME280;32333;55.844;-3.210;2023-03-12T09:47:17;97510.98;;;8.24;100.00
45872;BME280;32333;55.844;-3.210;2023-03-12T09:49:51;97504.11;;;7.38;100.00
45872;BME280;32333;55.844;-3.210;2023-03-12T09:52:24;97496.56;;;7.70;100.00
45872;BME280;32333;55.844;-3.210;2023-03-12T09:54:59;97492.73;;;7.36;100.00
45872;BME280;32333;55.844;-3.210;2023-03-12T09:57:29;97505.39;;;7.88;100.00
45872;BME280;32333;55.844;-3.210;2023-03-12T09:59:56;97492.51;;;7.60;100.00
45872;BME280;32333;55.844;-3.210;2023-03-12T10:02:41;97486.61;;;7.31;100.00
45872;BME280;32333;55.844;-3.210;2023-03-12T10:05:14;97495.52;;;7.76;100.00
45872;BME280;32333;55.844;-3.210;2023-03-12T10:07:48;97497.68;;;7.63;100.00
45872;BME280;32333;55.844;-3.210;2023-03-12T10:10:28;97506.66;;;7.33;100.00
45872;BME280;32333;55.844;-3.210;2023-03-12T10:14:44;97507.87;;;7.42;100.00
45872;BME280;32333;55.844;-3.210;2023-03-12T10:17:25;97513.45;;;7.15;100.00
45872;BME280;32333;55.844;-3.210;2023-03-12T10:20:12;97529.38;;;7.33;100.00
45872;BME280;32333;55.844;-3.210;2023-03-12T10:22:51;97532.43;;;7.05;100.00
45872;BME280;32333;55.844;-3.210;2023-03-12T10:25:27;97541.62;;;7.12;100.00
45872;BME280;32333;55.844;-3.210;2023-03-12T10:28:01;97534.45;;;7.01;100.00
45872;BME280;32333;55.844;-3.210;2023-03-12T10:30:32;97532.81;;;7.42;100.00
45872;BME280;32333;55.844;-3.210;2023-03-12T10:33:02;97536.78;;;7.35;100.00
45872;BME280;32333;55.844;-3.210;2023-03-12T10:35:30;97538.75;;;7.45;100.00
45872;BME280;32333;55.844;-3.210;2023-03-12T10:37:58;97548.76;;;7.48;100.00
45872;BME280;32333;55.844;-3.210;2023-03-12T10:40:28;97543.96;;;7.32;100.00
45872;BME280;32333;55.844;-3.210;2023-03-12T10:44:35;97537.41;;;6.97;100.00
45872;BME280;32333;55.844;-3.210;2023-03-12T10:47:09;97548.69;;;6.81;100.00
45872;BME280;32333;55.844;-3.210;2023-03-12T10:49:43;97553.56;;;6.92;100.00
45872;BME280;32333;55.844;-3.210;2023-03-12T10:52:15;97558.56;;;7.03;100.00
45872;BME280;32333;55.844;-3.210;2023-03-12T10:54:45;97551.50;;;7.07;100.00
45872;BME280;32333;55.844;-3.210;2023-03-12T10:57:14;97563.71;;;6.67;100.00
45872;BME280;32333;55.844;-3.210;2023-03-12T10:59:45;97569.46;;;6.49;100.00
45872;BME280;32333;55.844;-3.210;2023-03-12T11:02:29;97578.40;;;6.52;100.00
45872;BME280;32333;55.844;-3.210;2023-03-12T11:04:58;97581.99;;;6.67;100.00
45872;BME280;32333;55.844;-3.210;2023-03-12T11:07:29;97578.11;;;7.19;100.00
45872;BME280;32333;55.844;-3.210;2023-03-12T11:10:18;97594.31;;;7.85;100.00
45872;BME280;32333;55.844;-3.210;2023-03-12T11:14:44;97599.33;;;7.15;100.00
45872;BME280;32333;55.844;-3.210;2023-03-12T11:17:20;97596.35;;;7.68;100.00
45872;BME280;32333;55.844;-3.210;2023-03-12T11:19:48;97598.82;;;7.23;100.00
45872;BME280;32333;55.844;-3.210;2023-03-12T11:22:28;97600.33;;;6.98;100.00
45872;BME280;32333;55.844;-3.210;2023-03-12T11:24:58;97599.33;;;7.07;100.00
45872;BME280;32333;55.844;-3.210;2023-03-12T11:27:35;97599.75;;;7.48;100.00
45872;BME280;32333;55.844;-3.210;2023-03-12T11:30:11;97599.76;;;7.33;100.00
45872;BME280;32333;55.844;-3.210;2023-03-12T11:32:44;97590.96;;;6.82;100.00
45872;BME280;32333;55.844;-3.210;2023-03-12T11:35:14;97603.08;;;7.48;100.00
45872;BME280;32333;55.844;-3.210;2023-03-12T11:37:54;97600.19;;;7.02;100.00
45872;BME280;32333;55.844;-3.210;2023-03-12T11:40:34;97599.43;;;6.73;100.00
45872;BME280;32333;55.844;-3.210;2023-03-12T11:44:43;97594.74;;;7.18;100.00
45872;BME280;32333;55.844;-3.210;2023-03-12T11:47:28;97590.86;;;6.89;100.00
45872;BME280;32333;55.844;-3.210;2023-03-12T11:50:08;97591.99;;;6.95;100.00
45872;BME280;32333;55.844;-3.210;2023-03-12T11:52:50;97577.17;;;7.37;100.00
45872;BME280;32333;55.844;-3.210;2023-03-12T11:55:38;97584.16;;;7.22;100.00
45872;BME280;32333;55.844;-3.210;2023-03-12T11:58:20;97587.87;;;7.48;100.00
45872;BME280;32333;55.844;-3.210;2023-03-12T12:00:59;97577.47;;;7.44;100.00
45872;BME280;32333;55.844;-3.210;2023-03-12T12:03:45;97573.45;;;7.48;100.00
45872;BME280;32333;55.844;-3.210;2023-03-12T12:06:23;97567.65;;;7.64;100.00
45872;BME280;32333;55.844;-3.210;2023-03-12T12:09:05;97572.66;;;7.64;100.00
45872;BME280;32333;55.844;-3.210;2023-03-12T12:11:44;97565.50;;;7.78;100.00
45872;BME280;32333;55.844;-3.210;2023-03-12T12:14:54;97559.89;;;8.49;100.00
45872;BME280;32333;55.844;-3.210;2023-03-12T12:17:33;97552.97;;;7.29;100.00
45872;BME280;32333;55.844;-3.210;2023-03-12T12:20:16;97552.81;;;8.01;100.00
45872;BME280;32333;55.844;-3.210;2023-03-12T12:22:55;97555.87;;;8.18;100.00
45872;BME280;32333;55.844;-3.210;2023-03-12T12:25:29;97544.15;;;8.36;100.00
45872;BME280;32333;55.844;-3.210;2023-03-12T12:28:13;97550.53;;;8.01;100.00
45872;BME280;32333;55.844;-3.210;2023-03-12T12:30:54;97544.12;;;8.32;100.00
45872;BME280;32333;55.844;-3.210;2023-03-12T12:33:36;97534.64;;;8.49;100.00
45872;BME280;32333;55.844;-3.210;2023-03-12T12:36:09;97526.76;;;8.52;100.00
45872;BME280;32333;55.844;-3.210;2023-03-12T12:38:41;97524.77;;;8.79;100.00
45872;BME280;32333;55.844;-3.210;2023-03-12T12:41:12;97513.07;;;9.71;100.00
45872;BME280;32333;55.844;-3.210;2023-03-12T12:44:40;97511.23;;;8.52;100.00
45872;BME280;32333;55.844;-3.210;2023-03-12T12:47:12;97493.99;;;8.19;100.00
45872;BME280;32333;55.844;-3.210;2023-03-12T12:49:47;97498.83;;;8.27;100.00
45872;BME280;32333;55.844;-3.210;2023-03-12T12:52:17;97501.26;;;8.95;100.00
45872;BME280;32333;55.844;-3.210;2023-03-12T12:54:53;97487.95;;;8.46;100.00
45872;BME280;32333;55.844;-3.210;2023-03-12T12:57:26;97488.29;;;8.74;100.00
45872;BME280;32333;55.844;-3.210;2023-03-12T13:00:13;97507.05;;;8.28;100.00
45872;BME280;32333;55.844;-3.210;2023-03-12T13:02:46;97498.54;;;8.34;100.00
45872;BME280;32333;55.844;-3.210;2023-03-12T13:05:20;97499.40;;;8.21;100.00
45872;BME280;32333;55.844;-3.210;2023-03-12T13:07:49;97488.00;;;8.20;100.00
45872;BME280;32333;55.844;-3.210;2023-03-12T13:10:49;97493.07;;;8.12;100.00
45872;BME280;32333;55.844;-3.210;2023-03-12T13:14:38;97490.76;;;7.95;100.00
45872;BME280;32333;55.844;-3.210;2023-03-12T13:17:25;97492.31;;;7.97;100.00
45872;BME280;32333;55.844;-3.210;2023-03-12T13:19:58;97478.24;;;7.22;100.00
45872;BME280;32333;55.844;-3.210;2023-03-12T13:22:37;97462.79;;;7.32;100.00
45872;BME280;32333;55.844;-3.210;2023-03-12T13:25:19;97470.57;;;7.18;100.00